New Salem, Illinois
Current Conditions -  °F | °C
As of 8:55 PM on Thursday 27 Nov 2014 (Local Time) from KPPQ Reporting Station
Clear Clear  
Wind Chill: 18°   Ceiling: Unl
Heat Index: 18°   Visibility: 10mi
Dew Point: 14°   Wind: 0mph
Humidity: 85%   Direction: NA
Pressure: 30.43"   Gusts: NA
Location:  39.71°N, 90.85°W
Report Text: KPPQ 280255Z AUTO 00000KT 10SM CLR M08/M10 A3043 RMK AO2 T10791100 PWINO
Loading
Personal Weather Stations






























Interactive Weather Map New forecast layout! Learn more

10-Day Weather Forecast

Advertisements
Track Severe Weather on mobile